Observations
| Time | Sensor | AQI | SAQ | Temp °C | Hum % | Pres Pa | CO μg/m³ | H₂S μg/m³ | NO μg/m³ | NO₂ μg/m³ | O₃ μg/m³ | SO₂ μg/m³ | CO₂e PPM | VOC PPM | PM1 μg/m³ | PM2.5 μg/m³ | PM4 μg/m³ | PM10 μg/m³ | TPS µm |
|---|---|---|---|---|---|---|---|---|---|---|---|---|---|---|---|---|---|---|---|
| Tuesday 11 August 2026 | |||||||||||||||||||
| 06:55 | Trim Market St | 2 | 13.2 | 76 | 33,686 | 1.1 | 0 | 3.38 | 34.88 | 27.49 | 0 | 2.14 | 3.72 | 6.35 | |||||
| 06:54 | Trim Market St | 2 | 13.1 | 76 | 34,354 | 1.48 | 0 | 3.3 | 30.1 | 35.58 | 0 | 1.43 | 5.64 | 8.71 | |||||
| 06:53 | Trim Patrick St | 1 | 11.6 | 82 | 38,460 | 0.43 | 1.6 | 3.66 | 29.44 | 2.81 | 0 | 3.71 | 6.5 | 7.15 | |||||
| 06:53 | Trim Market St | 2 | 13.1 | 76 | 35,101 | 1.03 | 0 | 3.32 | 32.75 | 31.59 | 0 | 2.14 | 3.73 | 6.35 | |||||
| 06:52 | Trim Market St | 2 | 13.1 | 76 | 36,109 | 1.01 | 0 | 3.68 | 35.84 | 27.69 | 0 | 2.14 | 4.21 | 6.94 | |||||
| 06:51 | Trim Patrick St | 1 | 11.5 | 82 | 38,460 | 0.43 | 3.76 | 3.7 | 32.52 | 1.5 | 0 | 3.71 | 8.58 | 9.44 | |||||
| 06:51 | Trim Market St | 2 | 13 | 76 | 37,263 | 1 | 0 | 6.4 | 35.45 | 32.44 | 0 | 2.14 | 3.26 | 6.35 | |||||
| 06:50 | Trim Market St | 2 | 13 | 76 | 38,378 | 1.64 | 0.94 | 7.43 | 34.56 | 27.64 | 0 | 2.14 | 3.26 | 5.75 | |||||
| 06:49 | Trim Market St | 2 | 12.9 | 76 | 39,579 | 2.73 | 12.62 | 7.99 | 43.93 | 26.85 | 0 | 2.14 | 4.22 | 6.94 | |||||
| 06:48 | Trim Market St | 2 | 12.9 | 76 | 41,050 | 9.87 | 72.45 | 6.68 | 64.98 | 10.25 | 0 | 2.14 | 4.23 | 7.53 | |||||
| 06:47 | Trim Market St | 2 | 12.8 | 76 | 42,217 | 0 | 161.87 | 5.42 | 57.93 | 10.56 | 43.92 | 1.43 | 3.75 | 6.34 | |||||
| 06:47 | Trim Patrick St | 1 | 11.4 | 82 | 38,460 | 0.43 | 1.72 | 3.88 | 24.23 | 6.27 | 0 | 4.57 | 8.56 | 9.42 | |||||
| 06:46 | Trim Market St | 2 | 12.7 | 75 | 43,014 | 25.99 | 111.41 | 3.47 | 40.63 | 4.05 | 22.86 | 2.14 | 3.76 | 6.94 | |||||
| 06:46 | Trim Patrick St | 1 | 11.4 | 82 | 38,460 | 0.43 | 3.97 | 3.84 | 30.9 | 4.11 | 0 | 4.57 | 7.87 | 8.65 | |||||
| 06:45 | Trim Market St | 2 | 12.7 | 75 | 43,374 | 5.25 | 7.94 | 3.62 | 28.08 | 24.13 | 0 | 2.85 | 3.76 | 6.94 | |||||
| 06:45 | Trim Patrick St | 1 | 11.3 | 82 | 38,460 | 0.43 | 1.64 | 3.93 | 32.72 | 0 | 0 | 5.43 | 8.55 | 9.41 | |||||
| 06:44 | Trim Market St | 2 | 12.7 | 75 | 43,528 | 0.43 | 0 | 3.83 | 14.66 | 25.86 | 0 | 2.14 | 3.28 | 6.94 | |||||
| 06:44 | Trim Patrick St | 1 | 11.3 | 82 | 38,460 | 0.43 | 1.88 | 3.89 | 27.58 | 3.55 | 0 | 4.57 | 7.85 | 8.64 | |||||
| 06:43 | Trim Market St | 2 | 12.7 | 75 | 43,554 | 0.43 | 0 | 3.72 | 19.13 | 24.07 | 0 | 2.14 | 3.76 | 6.34 | |||||
| 06:43 | Trim Patrick St | 1 | 11.3 | 82 | 38,460 | 0.43 | 1.59 | 3.91 | 27.98 | 4.23 | 0 | 3.71 | 7.16 | 7.88 | |||||